createdAt,value
2023-01-11T00:00:27.769Z,-12.97
2023-01-11T00:02:58.912Z,-13.00
2023-01-11T00:05:26.063Z,-12.96
2023-01-11T00:07:53.020Z,-12.91
2023-01-11T00:10:20.194Z,-12.87
2023-01-11T00:12:47.562Z,-12.86
2023-01-11T00:15:14.570Z,-12.80
2023-01-11T00:17:42.197Z,-12.84
2023-01-11T00:20:11.678Z,-12.93
2023-01-11T00:22:38.581Z,-12.96
2023-01-11T00:25:05.996Z,-12.96
2023-01-11T00:27:32.903Z,-13.00
2023-01-11T00:30:00.152Z,-13.15
2023-01-11T00:32:27.495Z,-13.20
2023-01-11T00:34:54.574Z,-13.17
2023-01-11T00:37:21.613Z,-13.16
2023-01-11T00:39:48.543Z,-13.11
2023-01-11T00:42:56.215Z,-13.17
2023-01-11T09:41:42.325Z,-8.53
2023-01-11T09:45:11.276Z,-8.59
2023-01-11T09:47:41.401Z,-8.50
2023-01-11T09:50:14.609Z,-8.29
2023-01-11T09:52:43.792Z,-8.20
2023-01-11T09:55:20.077Z,-8.23
2023-01-11T09:57:54.402Z,-8.29
2023-01-11T12:35:56.619Z,-7.88
2023-01-11T12:38:54.486Z,-7.65
2023-01-11T12:41:53.760Z,-7.32
2023-01-11T12:44:34.768Z,-7.17
2023-01-11T12:47:21.979Z,-7.12
2023-01-11T12:50:00.811Z,-7.19
2023-01-11T12:52:43.615Z,-7.19
2023-01-11T12:55:23.109Z,-7.07
2023-01-11T12:58:08.361Z,-6.87
2023-01-11T13:00:50.380Z,-6.92
2023-01-11T13:03:29.254Z,-7.03
2023-01-11T13:06:09.092Z,-7.18
2023-01-11T13:08:50.506Z,-7.24
2023-01-11T13:11:36.610Z,-7.15
2023-01-11T13:14:06.923Z,-7.07
2023-01-11T13:17:06.493Z,-7.08
2023-01-11T13:19:38.963Z,-7.18
2023-01-11T13:22:09.561Z,-7.30
2023-01-11T13:24:36.710Z,-7.33
2023-01-11T13:27:23.502Z,-7.22
2023-01-11T13:29:53.045Z,-7.19
2023-01-11T13:32:24.727Z,-7.27
2023-01-11T13:35:00.795Z,-7.35
2023-01-11T13:37:53.148Z,-7.46
2023-01-11T13:40:25.599Z,-7.40
2023-01-11T13:43:04.320Z,-7.29
2023-01-11T13:45:39.598Z,-7.36
2023-01-11T13:48:16.451Z,-7.50
2023-01-11T13:50:51.802Z,-7.67
2023-01-11T13:53:26.376Z,-7.70
2023-01-11T13:56:03.659Z,-7.60
2023-01-11T13:58:51.045Z,-7.65
2023-01-11T14:01:20.851Z,-7.78
2023-01-11T14:03:54.062Z,-7.91
2023-01-11T14:06:33.110Z,-7.93
2023-01-11T14:09:13.861Z,-7.87
2023-01-11T14:11:42.081Z,-7.87
2023-01-11T14:14:20.344Z,-7.99
2023-01-11T14:17:08.199Z,-8.14
2023-01-11T14:20:14.727Z,-8.16
2023-01-11T14:22:56.805Z,-8.11
2023-01-11T14:25:36.622Z,-8.11
2023-01-11T14:28:13.208Z,-8.23
2023-01-11T14:31:02.089Z,-8.36
2023-01-11T14:33:39.539Z,-8.31
2023-01-11T14:36:38.842Z,-8.20
2023-01-11T14:39:11.874Z,-8.22
2023-01-11T14:42:00.956Z,-8.40
2023-01-11T14:45:03.335Z,-8.53
2023-01-11T14:47:37.316Z,-8.46
2023-01-11T14:50:46.151Z,-8.36
2023-01-11T14:53:17.638Z,-8.43
2023-01-11T14:55:46.556Z,-8.55
2023-01-11T14:58:18.121Z,-8.52
2023-01-11T15:00:45.092Z,-8.47
2023-01-11T15:03:19.917Z,-8.51
2023-01-11T15:06:23.963Z,-8.58
2023-01-11T15:08:55.283Z,-8.69
2023-01-11T15:11:31.910Z,-8.62
2023-01-11T15:14:22.879Z,-8.56
2023-01-11T15:17:14.173Z,-8.65
2023-01-11T15:19:45.519Z,-8.78
2023-01-11T15:22:31.599Z,-8.84
2023-01-11T15:25:04.593Z,-8.74
2023-01-11T15:27:34.466Z,-8.65
2023-01-11T15:30:05.021Z,-8.75
2023-01-11T15:32:34.169Z,-8.89
2023-01-11T15:35:23.439Z,-8.93
2023-01-11T15:38:12.060Z,-8.73
2023-01-11T15:40:41.285Z,-8.65
2023-01-11T15:43:29.231Z,-8.74
2023-01-11T15:46:29.982Z,-8.89
2023-01-11T15:56:21.195Z,-8.86
2023-01-11T15:58:52.936Z,-9.04
2023-01-11T16:01:28.648Z,-9.01
2023-01-11T16:04:21.134Z,-9.00
2023-01-11T16:06:57.728Z,-8.98
2023-01-11T16:09:47.085Z,-9.11
2023-01-11T16:12:37.067Z,-9.29
2023-01-11T16:15:23.356Z,-9.26
2023-01-11T16:17:50.454Z,-9.16
2023-01-11T16:20:20.714Z,-9.17
2023-01-11T16:23:02.961Z,-9.29
2023-01-11T16:25:36.664Z,-9.38
2023-01-11T16:28:03.610Z,-9.33
2023-01-11T16:30:30.780Z,-9.28
2023-01-11T16:33:17.581Z,-9.34
2023-01-11T16:35:44.613Z,-9.51
2023-01-11T16:38:18.032Z,-9.50
2023-01-11T16:40:48.093Z,-9.46
2023-01-11T16:43:23.733Z,-9.39
2023-01-11T16:45:52.200Z,-9.45
2023-01-11T16:48:22.692Z,-9.60
2023-01-11T16:51:09.103Z,-9.60
2023-01-11T16:53:37.900Z,-9.52
2023-01-11T16:56:06.029Z,-9.53
2023-01-11T16:58:37.466Z,-9.69
2023-01-11T17:01:12.069Z,-9.79
2023-01-11T17:03:49.083Z,-9.79
2023-01-11T17:06:19.561Z,-9.63
2023-01-11T17:08:52.604Z,-9.64
2023-01-11T17:11:45.755Z,-9.73
2023-01-11T17:14:28.804Z,-9.81
2023-01-11T17:17:00.532Z,-9.69
2023-01-11T17:19:32.595Z,-9.59
2023-01-11T17:22:05.735Z,-9.64
2023-01-11T17:24:36.792Z,-9.73
2023-01-11T17:27:06.642Z,-9.81
2023-01-11T17:29:39.441Z,-9.74
2023-01-11T17:32:08.298Z,-9.69
2023-01-11T17:34:36.574Z,-9.72
2023-01-11T17:37:10.669Z,-9.83
2023-01-11T17:39:40.092Z,-9.92
2023-01-11T17:42:26.905Z,-9.93
2023-01-11T17:45:13.273Z,-9.85
2023-01-11T17:47:41.573Z,-9.75
2023-01-11T17:50:32.187Z,-9.74
2023-01-11T17:53:21.448Z,-9.84
2023-01-11T17:56:02.559Z,-9.89
2023-01-11T17:58:39.314Z,-9.83
2023-01-11T18:01:08.868Z,-9.74
2023-01-11T18:03:58.595Z,-9.72
2023-01-11T18:06:36.082Z,-9.83
2023-01-11T18:09:04.867Z,-9.95
2023-01-11T18:11:39.139Z,-9.92
2023-01-11T18:14:08.172Z,-9.82
2023-01-11T18:16:35.062Z,-9.76
2023-01-11T18:19:01.929Z,-9.82
2023-01-11T18:21:30.945Z,-9.91
2023-01-11T18:24:10.808Z,-9.95
2023-01-11T18:26:41.796Z,-9.88
2023-01-11T18:29:36.653Z,-9.81
2023-01-11T18:32:04.476Z,-9.81
2023-01-11T18:34:31.892Z,-9.83
2023-01-11T18:36:59.782Z,-9.89
2023-01-11T18:39:26.768Z,-9.87
2023-01-11T18:42:09.540Z,-9.76
2023-01-11T18:44:41.267Z,-9.67
2023-01-11T18:47:16.950Z,-9.66
2023-01-11T18:49:44.912Z,-9.75
2023-01-11T18:52:14.578Z,-9.79
2023-01-11T18:54:42.128Z,-9.70
2023-01-11T18:57:09.499Z,-9.66
2023-01-11T18:59:36.549Z,-9.68
2023-01-11T19:02:27.229Z,-9.77
2023-01-11T19:04:55.321Z,-9.84
2023-01-11T19:07:23.353Z,-9.71
2023-01-11T19:09:50.390Z,-9.59
2023-01-11T19:12:17.613Z,-9.57
2023-01-11T19:14:44.736Z,-9.62
2023-01-11T19:17:12.082Z,-9.68
2023-01-11T19:19:39.533Z,-9.70
2023-01-11T19:22:06.704Z,-9.65
2023-01-11T19:24:33.848Z,-9.52
2023-01-11T19:27:00.891Z,-9.48
2023-01-11T19:29:28.352Z,-9.51
2023-01-11T19:31:58.249Z,-9.55
2023-01-11T19:34:25.168Z,-9.52
2023-01-11T19:36:52.300Z,-9.42
2023-01-11T19:39:19.444Z,-9.36
2023-01-11T19:41:57.921Z,-9.33
2023-01-11T19:44:34.904Z,-9.40
2023-01-11T19:47:12.543Z,-9.48
2023-01-11T19:49:40.711Z,-9.42
2023-01-11T19:52:13.187Z,-9.33
2023-01-11T19:54:42.454Z,-9.27
2023-01-11T19:57:14.558Z,-9.21
2023-01-11T19:59:42.350Z,-9.26
2023-01-11T20:02:11.985Z,-9.34
2023-01-11T20:04:39.677Z,-9.36
2023-01-11T20:07:07.122Z,-9.26
2023-01-11T20:09:34.356Z,-9.16
2023-01-11T20:12:01.285Z,-9.15
2023-01-11T20:14:28.230Z,-9.19
2023-01-11T20:16:55.269Z,-9.25
2023-01-11T20:19:22.214Z,-9.25
2023-01-11T20:21:49.135Z,-9.18
2023-01-11T20:24:16.151Z,-9.05
2023-01-11T20:26:43.390Z,-9.03
2023-01-11T20:29:10.502Z,-9.06
2023-01-11T20:31:37.805Z,-9.11
2023-01-11T20:34:13.617Z,-9.10
2023-01-11T20:36:40.895Z,-9.05
2023-01-11T20:39:08.527Z,-8.98
2023-01-11T20:41:47.577Z,-8.94
2023-01-11T20:44:16.257Z,-9.00
2023-01-11T20:46:43.813Z,-9.05
2023-01-11T20:49:11.661Z,-9.07
2023-01-11T20:51:38.614Z,-9.04
2023-01-11T20:54:05.756Z,-8.94
2023-01-11T20:56:33.718Z,-8.87
2023-01-11T20:59:01.440Z,-8.92
2023-01-11T21:01:28.837Z,-8.99
2023-01-11T21:03:59.466Z,-9.07
2023-01-11T21:06:26.511Z,-9.09
2023-01-11T21:08:57.657Z,-9.03
2023-01-11T21:11:25.131Z,-8.97
2023-01-11T21:13:55.571Z,-9.08
2023-01-11T21:23:22.340Z,-9.05
2023-01-11T21:25:49.285Z,-8.99
2023-01-11T21:28:16.480Z,-9.03
2023-01-11T21:30:43.471Z,-9.19
2023-01-11T21:33:10.857Z,-9.23
2023-01-11T21:35:37.938Z,-9.17
2023-01-11T21:38:04.823Z,-9.11
2023-01-11T21:40:32.237Z,-9.12
2023-01-11T21:42:59.366Z,-9.21
2023-01-11T21:45:26.703Z,-9.32
2023-01-11T21:47:53.823Z,-9.36
2023-01-11T21:50:21.079Z,-9.28
2023-01-11T21:52:48.045Z,-9.19
2023-01-11T21:55:15.323Z,-9.23
2023-01-11T21:57:42.212Z,-9.28
2023-01-11T22:00:11.086Z,-9.35
2023-01-11T22:02:41.149Z,-9.37
2023-01-11T22:05:09.238Z,-9.29
2023-01-11T22:07:38.561Z,-9.22
2023-01-11T22:10:06.554Z,-9.26
2023-01-11T22:12:34.145Z,-9.34
2023-01-11T22:15:01.124Z,-9.36
2023-01-11T22:17:28.220Z,-9.30
2023-01-11T22:19:55.471Z,-9.26
2023-01-11T22:22:22.343Z,-9.32
2023-01-11T22:24:49.265Z,-9.45
2023-01-11T22:27:16.254Z,-9.54
2023-01-11T22:29:43.606Z,-9.53
2023-01-11T22:32:10.520Z,-9.44
2023-01-11T22:34:39.655Z,-9.43
2023-01-11T22:37:07.097Z,-9.53
2023-01-11T22:39:33.998Z,-9.62
2023-01-11T22:42:00.841Z,-9.62
2023-01-11T22:44:27.709Z,-9.52
2023-01-11T22:46:54.730Z,-9.48
2023-01-11T22:49:21.541Z,-9.58
2023-01-11T22:51:48.429Z,-9.69
2023-01-11T22:54:15.588Z,-9.67
2023-01-11T22:56:42.515Z,-9.60
2023-01-11T22:59:10.122Z,-9.58
2023-01-11T23:01:38.722Z,-9.67
2023-01-11T23:04:06.797Z,-9.78
2023-01-11T23:06:36.264Z,-9.77
2023-01-11T23:09:04.345Z,-9.69
2023-01-11T23:11:51.720Z,-9.65
2023-01-11T23:14:20.156Z,-9.59
2023-01-11T23:16:48.698Z,-9.60
2023-01-11T23:19:17.385Z,-9.69
2023-01-11T23:21:46.173Z,-9.64
2023-01-11T23:24:14.644Z,-9.54
2023-01-11T23:26:42.194Z,-9.51
2023-01-11T23:29:09.351Z,-9.59
2023-01-11T23:31:36.473Z,-9.69
2023-01-11T23:34:03.997Z,-9.73
2023-01-11T23:36:32.539Z,-9.61
2023-01-11T23:38:59.483Z,-9.54
2023-01-11T23:41:45.511Z,-9.54
2023-01-11T23:44:14.149Z,-9.60
2023-01-11T23:47:00.655Z,-9.69
2023-01-11T23:49:28.469Z,-9.65
2023-01-11T23:51:55.875Z,-9.51
2023-01-11T23:54:23.242Z,-9.49
2023-01-11T23:56:50.310Z,-9.55
2023-01-11T23:59:17.221Z,-9.61
